Home > Products > Valid Products > MTR

000
SAUS44 KMAF 220005 COR
MTRGDP
SPECI KGDP 212358Z AUTO 06022KT 8SM SCT006 BKN014 BKN018 19/18 RMK
AO2 PK WND 05026/2357 T01940178 $





000
SAUS44 KMAF 220004 COR
MTRGDP
SPECI KGDP 212358Z AUTO 06022KT 8SM SCT006 BKN014 BKN018 19/18 RMK
AO2 PK WND 05026/2357 T01940178 $





000
SAUS44 KMAF 220003
MTRGDP
SPECI KGDP 212358Z AUTO 06022KT 8SM SCT006 BKN014 BKN018 19/18 RMK
AO2 PK WND 05026/2357 T01940178 $





000
SAUS44 KMAF 212358 COR
MTRGDP
METAR KGDP 212351Z AUTO 05022KT 8SM SCT006 SCT014 BKN029 19/18 RMK
AO2 PK WND 05027/2325 SLPNO 60000 T01940178 10239 20194 $





000
SAUS44 KMAF 212357 COR
MTRGDP
METAR KGDP 212351Z AUTO 05022KT 8SM SCT006 SCT014 BKN029 19/18 RMK
AO2 PK WND 05027/2325 SLPNO 60000 T01940178 10239 20194 $





000
SAUS44 KMAF 212356
MTRGDP
METAR KGDP 212351Z AUTO 05022KT 8SM SCT006 SCT014 BKN029 19/18 RMK
AO2 PK WND 05027/2325 SLPNO 60000 T01940178 10239 20194 $





000
SAUS44 KMAF 212354
MTR6R6
METAR K6R6 212353Z AUTO 08011KT 30/20 A3004 RMK AO1 SLP134 T03000200
10328 20294 53006





000
SAUS44 KMAF 212345
MTRGDP
SPECI KGDP 212340Z AUTO 05020KT 10SM FEW005 FEW013 SCT029 21/17 RMK
AO2 PK WND 05027/2325 T02060172 $





000
SAUS44 KMAF 212328
MTRGDP
SPECI KGDP 212323Z AUTO 06022KT 8SM FEW006 SCT010 BKN016 21/18 RMK
AO2 T02060178 $





000
SAUS44 KMAF 212320
MTRGDP
SPECI KGDP 212315Z AUTO 05021KT 7SM SCT004 BKN009 BKN012 21/18 RMK
AO2 T02060183 $





000
SAUS44 KMAF 212310
MTRGDP
SPECI KGDP 212305Z AUTO 05019KT 8SM FEW004 SCT010 BKN017 21/18 RMK
AO2 T02110183 $





000
SAUS44 KMAF 212256
MTRGDP
METAR KGDP 212251Z AUTO 06019KT 9SM FEW010 22/18 RMK AO2 PK WND
06027/2204 SLPNO T02170183 $





000
SAUS44 KMAF 212254
MTR6R6
METAR K6R6 212253Z AUTO 09010KT 31/18 A3002 RMK AO1 SLP127 T03110183





000
SAUS44 KMAF 212224
MTRGDP
SPECI KGDP 212219Z AUTO 05020KT 10SM SCT011 22/18 RMK AO2 PK WND
06027/2204 T02170178 $





000
SAUS44 KMAF 212207
MTRGDP
SPECI KGDP 212202Z AUTO 05023KT 9SM BKN011 22/18 RMK AO2 PK WND
05027/2157 T02170178 $





000
SAUS44 KMAF 212156
MTRGDP
METAR KGDP 212151Z AUTO 06021KT 10SM SCT011 22/18 RMK AO2 SLPNO
T02170178 $





000
SAUS44 KMAF 212154
MTR6R6
METAR K6R6 212153Z AUTO 09011KT 32/19 A3002 RMK AO1 SLP127 T03220194





000
SAUS44 KMAF 212056
MTRGDP
METAR KGDP 212051Z AUTO 05017KT 9SM FEW006 SCT100 22/18 RMK AO2 PK
WND 04026/2039 SLPNO 60000 T02220183 $





000
SAUS44 KMAF 212054
MTR6R6
METAR K6R6 212053Z AUTO 09014KT 32/19 A3002 RMK AO1 SLP126 T03220189
56025





000
SAUS44 KMAF 211956
MTRGDP
METAR KGDP 211951Z AUTO 04014KT 10SM FEW023 BKN048 OVC090 22/18 RMK
AO2 RAB23E32 SLPNO P0000 T02220178 $





000
SAUS44 KMAF 211954
MTRGDP
SPECI KGDP 211949Z AUTO 04015KT 10SM SCT025 BKN047 OVC090 22/18 RMK
AO2 RAB23E32 P0000 $





000
SAUS44 KMAF 211954
MTR6R6
METAR K6R6 211953Z AUTO 08012KT 32/20 A3003 RMK AO1 SLP131 T03220200





000
SAUS44 KMAF 211856
MTRGDP
METAR KGDP 211851Z AUTO 09010KT 10SM SCT019 BKN027 23/17 RMK AO2
SLPNO T02330172 $





000
SAUS44 KMAF 211854
MTR6R6
METAR K6R6 211853Z AUTO 09008KT 31/20 A3007 RMK AO1 SLP144 T03060200





000
SAUS44 KMAF 211832
MTRGDP
SPECI KGDP 211827Z AUTO 07011KT 10SM SCT010 SCT015 BKN028 23/17 RMK
AO2 T02280172 $





000
SAUS44 KMAF 211821
MTRGDP
SPECI KGDP 211816Z AUTO 08012KT 9SM SCT010 BKN014 BKN028 23/18 RMK
AO2 T02330183 $





000
SAUS44 KMAF 211805
MTRGDP
SPECI KGDP 211801Z AUTO 07011KT 9SM FEW008 FEW015 SCT025 22/18 RMK
AO2 T02220178 $





000
SAUS44 KMAF 211756
MTRGDP
METAR KGDP 211751Z AUTO 07012KT 9SM FEW008 SCT015 BKN024 21/18 RMK
AO2 SLPNO 60000 T02110178 10222 20167 $





000
SAUS44 KMAF 211754
MTR6R6
METAR K6R6 211753Z AUTO 10010KT 29/21 A3010 RMK AO1 SLP154 T02940211
10294 20250 50000





000
SAUS44 KMAF 211746
MTRGDP
SPECI KGDP 211741Z AUTO 08014KT 9SM SCT008 BKN015 BKN020 21/18 RMK
AO2 T02110178 $





000
SAUS44 KMAF 211715
MTRGDP
SPECI KGDP 211710Z AUTO 07009KT 9SM BKN012 21/17 RMK AO2 T02060172 $





000
SAUS44 KMAF 211707
MTRGDP
SPECI KGDP 211702Z AUTO 07012KT 8SM BKN007 21/17 RMK AO2 CIG 004V011
T02060172 $





000
SAUS44 KMAF 211656
MTRGDP
METAR KGDP 211651Z AUTO 08010KT 8SM SCT005 21/18 RMK AO2 SLPNO
T02110178 $





000
SAUS44 KMAF 211654
MTRGDP
SPECI KGDP 211649Z AUTO 08011KT 8SM SCT005 21/18 RMK AO2 $





000
SAUS44 KMAF 211654
MTR6R6
METAR K6R6 211653Z AUTO 11010KT 28/22 A3012 RMK AO1 SLP161 T02780217





000
SAUS44 KMAF 211627
MTRGDP
SPECI KGDP 211622Z AUTO 06015KT 4SM BR OVC002 18/18 RMK AO2
T01830178 $





000
SAUS44 KMAF 211623
MTRGDP
SPECI KGDP 211618Z AUTO 05017KT 1 1/2SM BR OVC002 18/18 RMK AO2 VIS
1/2V5 T01830183 $





000
SAUS44 KMAF 211611
MTRGDP
SPECI KGDP 211606Z AUTO 05016KT 2SM BR OVC002 18/18 RMK AO2
T01780178 $





000
SAUS44 KMAF 211607
MTRGDP
SPECI KGDP 211602Z AUTO 05018KT 1/2SM FG OVC002 18/18 RMK AO2
T01780178 $





000
SAUS44 KMAF 211556
MTRGDP
METAR KGDP 211551Z AUTO 05020KT 1 1/2SM BR OVC002 18/18 RMK AO2
RAE37 SLPNO P0000 T01780178 $





000
SAUS44 KMAF 211554
MTR6R6
METAR K6R6 211553Z AUTO 10010KT 26/22 A3012 RMK AO1 SLP165 T02610222





000
SAUS44 KMAF 211547
MTRGDP
SPECI KGDP 211542Z AUTO 05020KT 1SM BR VV002 18/18 RMK AO2 RAE37
P0000 T01780178 $





000
SAUS44 KMAF 211539
MTRGDP
SPECI KGDP 211534Z AUTO 06019KT 1/4SM -RA FG VV002 18/18 RMK AO2
P0000 T01830183 $





000
SAUS44 KMAF 211456
MTRGDP
METAR KGDP 211451Z AUTO 05021KT M1/4SM -RA FG VV001 18/18 RMK AO2 PK
WND 05027/1429 RAB03 SLPNO P0000 60000 T01780178 $





000
SAUS44 KMAF 211454
MTR6R6
METAR K6R6 211453Z AUTO 09008KT 26/22 A3010 RMK AO1 SLP156 T02610222
51014





000
SAUS44 KMAF 211429
MTRGDP
SPECI KGDP 211424Z AUTO 06023KT M1/4SM -RA FG VV001 17/17 RMK AO2 PK
WND 06026/1424 RAB03 P0000 T01720172 $





000
SAUS44 KMAF 211400
MTRGDP
SPECI KGDP 211355Z AUTO 07018KT 1/4SM FG VV002 17/17 RMK AO2
T01720172 $





000
SAUS44 KMAF 211356
MTRGDP
METAR KGDP 211351Z AUTO 07019KT 1SM BR VV002 18/17 RMK AO2 SLPNO
T01780172 $





000
SAUS44 KMAF 211354
MTR6R6
METAR K6R6 211353Z AUTO 11007KT 26/22 A3009 RMK AO1 SLP154 T02560222





000
SAUS44 KMAF 211315
MTRGDP
SPECI KGDP 211310Z AUTO 05013KT 7SM SCT001 17/17 RMK AO2 T01720172 $





000
SAUS44 KMAF 211304
MTRGDP
SPECI KGDP 211259Z AUTO 04014KT 3SM BR BKN001 17/17 RMK AO2
T01720167 $





000
SAUS44 KMAF 211302
MTRGDP
SPECI KGDP 211257Z AUTO 04014KT 1 1/4SM BR BKN001 17/17 RMK AO2 VIS
1/4V5 T01720167 $





000
SAUS44 KMAF 211256
MTRGDP
METAR KGDP 211251Z AUTO 04016KT 1/4SM FG VV001 17/17 RMK AO2
RAB21E42 SLPNO P0000 T01670167 $





000
SAUS44 KMAF 211254
MTR6R6
METAR K6R6 211253Z AUTO 11008KT 25/22 A3007 RMK AO1 SLP147 T02500222





000
SAUS44 KMAF 211213
MTRGDP
SPECI KGDP 211208Z AUTO 05020KT 1/4SM FG VV002 17/17 RMK AO2
T01670167 $





000
SAUS44 KMAF 211205
MTRGDP
SPECI KGDP 211201Z AUTO 05022KT 1 1/2SM BR BKN002 17/17 RMK AO2
T01670167 $





000
SAUS44 KMAF 211203
MTRGDP
SPECI KGDP 211158Z AUTO 05022KT 4SM BR BKN003 17/16 RMK AO2
T01670161 $





000
SAUS44 KMAF 211156
MTRGDP
METAR KGDP 211151Z AUTO 06021KT 10SM SCT003 17/16 RMK AO2 SLPNO
60000 T01670161 10189 20161 $





000
SAUS44 KMAF 211154
MTRGDP
SPECI KGDP 211149Z AUTO 06021KT 10SM SCT003 17/16 RMK AO2 $





000
SAUS44 KMAF 211154
MTR6R6
METAR K6R6 211153Z AUTO 09008KT 25/22 A3005 RMK AO1 SLP141 70001
T02500222 10256 20244 53011





000
SAUS44 KMAF 211056
MTRGDP
METAR KGDP 211051Z AUTO 03014KT 10SM BKN055 18/15 RMK AO2 SLPNO
T01830150 $





000
SAUS44 KMAF 211054
MTR6R6
METAR K6R6 211053Z AUTO 10010KT 25/22 A3004 RMK AO1 SLP135 T02500222





000
SAUS44 KMAF 210956
MTRGDP
METAR KGDP 210951Z AUTO 05014KT 10SM CLR 17/16 RMK AO2 SLPNO
T01670156 $





000
SAUS44 KMAF 210954
MTR6R6
METAR K6R6 210953Z AUTO 10010KT 25/22 A3003 RMK AO1 SLP129 T02500222





000
SAUS44 KMAF 210856
MTRGDP
METAR KGDP 210851Z AUTO 06020KT 10SM BKN100 17/16 RMK AO2 RAB08E21
SLPNO P0000 60000 T01670161 $





000
SAUS44 KMAF 210854
MTR6R6
METAR K6R6 210853Z AUTO 08010KT 25/22 A3002 RMK AO1 SLP126 T02500222
58001





000
SAUS44 KMAF 210758 COR
MTRGDP
METAR KGDP 210751Z AUTO 04023KT 10SM FEW008 FEW048 BKN065 17/16 RMK
AO2 PK WND 04034/0710 SLPNO T01670161 $





000
SAUS44 KMAF 210757 COR
MTRGDP
METAR KGDP 210751Z AUTO 04023KT 10SM FEW008 FEW048 BKN065 17/16 RMK
AO2 PK WND 04034/0710 SLPNO T01670161 $





000
SAUS44 KMAF 210756
MTRGDP
METAR KGDP 210751Z AUTO 04023KT 10SM FEW008 FEW048 BKN065 17/16 RMK
AO2 PK WND 04034/0710 SLPNO T01670161 $





000
SAUS44 KMAF 210754
MTR6R6
METAR K6R6 210753Z AUTO 06007KT 25/22 A3002 RMK AO1 SLP127 T02500222





000
SAUS44 KMAF 210720
MTRGDP
SPECI KGDP 210715Z AUTO 04027KT 10SM FEW003 SCT010 OVC060 17/16 RMK
AO2 PK WND 04034/0710 T01670161 $





000
SAUS44 KMAF 210658 COR
MTRGDP
METAR KGDP 210651Z AUTO 04026G32KT 8SM SCT005 BKN010 BKN014 18/17
RMK AO2 PK WND 05032/0647 SLPNO T01780172 402390167 $





000
SAUS44 KMAF 210657 COR
MTRGDP
METAR KGDP 210651Z AUTO 04026G32KT 8SM SCT005 BKN010 BKN014 18/17
RMK AO2 PK WND 05032/0647 SLPNO T01780172 402390167 $





000
SAUS44 KMAF 210656
MTRGDP
METAR KGDP 210651Z AUTO 04026G32KT 8SM SCT005 BKN010 BKN014 18/17
RMK AO2 PK WND 05032/0647 SLPNO T01780172 402390167 $





000
SAUS44 KMAF 210654
MTR6R6
METAR K6R6 210653Z AUTO 06005KT 25/22 A3002 RMK AO1 SLP127 T02500222





000
SAUS44 KMAF 210653
MTRGDP
SPECI KGDP 210648Z AUTO 05027G32KT 7SM FEW003 SCT009 BKN014 18/18
RMK AO2 PK WND 05032/0647 $





000
SAUS44 KMAF 210638
MTRGDP
SPECI KGDP 210633Z AUTO 06020KT 6SM BR SCT009 18/18 RMK AO2
T01830178 $





000
SAUS44 KMAF 210556
MTRGDP
METAR KGDP 210551Z AUTO 06017KT 10SM SCT060 18/17 RMK AO2 SLPNO
60000 T01830172 10217 20183 $





000
SAUS44 KMAF 210554
MTR6R6
METAR K6R6 210553Z AUTO 08007KT 26/22 A3002 RMK AO1 SLP128 60001
T02560222 10272 20250 403390250 51005





000
SAUS44 KMAF 210456
MTRGDP
METAR KGDP 210451Z AUTO 04021KT 10SM FEW023 19/17 RMK AO2 SLPNO
T01940172 $





000
SAUS44 KMAF 210454
MTR6R6
METAR K6R6 210453Z AUTO 05005KT 25/22 A3002 RMK AO1 SLP127 T02500222





000
SAUS44 KMAF 210356
MTRGDP
METAR KGDP 210351Z AUTO 05020KT 9SM FEW055 19/18 RMK AO2 SLPNO
T01940183 $





000
SAUS44 KMAF 210355
MTR6R6
METAR K6R6 210353Z AUTO 06007KT 25/22 A3001 RMK AO1 SLP126 T02500222





000
SAUS44 KMAF 210332
MTRGDP
SPECI KGDP 210327Z AUTO 05021KT 6SM BR FEW002 19/19 RMK AO2
T01890189 $





000
SAUS44 KMAF 210256
MTRGDP
METAR KGDP 210251Z AUTO 06020KT 9SM FEW024 19/18 RMK AO2 RAB37E46
SLPNO P0000 60000 T01940183 $





000
SAUS44 KMAF 210254
MTR6R6
METAR K6R6 210253Z AUTO 05008KT 26/22 A3000 RMK AO1 SLP124 60001
T02560217 53023





000
SAUS44 KMAF 210156
MTRGDP
METAR KGDP 210151Z AUTO 06018KT 10SM CLR 19/18 RMK AO2 SLPNO
T01940178 $





000
SAUS44 KMAF 210154
MTR6R6
METAR K6R6 210153Z AUTO 08006KT 26/22 A2998 RMK AO1 SLP117 T02610217





000
SAUS44 KMAF 210056
MTRGDP
METAR KGDP 210051Z AUTO 06017KT 9SM CLR 20/18 RMK AO2 SLPNO
T02000178 $





000
SAUS44 KMAF 210055
MTR6R6
METAR K6R6 210053Z AUTO 09007KT 26/21 A2995 RMK AO1 SLP105 P0001
T02610211





000
SAUS44 KMAF 202356
MTRGDP
METAR KGDP 202351Z AUTO 06014KT 9SM FEW016 22/18 RMK AO2 RAE08 SLPNO
P0000 60000 T02170178 10239 20211 $





000
SAUS44 KMAF 202354
MTR6R6
METAR K6R6 202353Z AUTO 08007KT 27/23 A2993 RMK AO1 SLP098 T02720228
10339 20272





000
SAUS44 KMAF 202256
MTRGDP
METAR KGDP 202251Z AUTO 04014KT 7SM RA FEW017 BKN055 OVC070 21/19
RMK AO2 RAB21E32B44 SLPNO P0000 T02110189 $





000
SAUS44 KMAF 202254
MTR6R6
METAR K6R6 202253Z AUTO 13007KT 30/22 A2993 RMK AO1 SLP098 T03000222





000
SAUS44 KMAF 202248
MTRGDP
SPECI KGDP 202243Z AUTO 04016KT 9SM FEW017 SCT033 OVC060 22/18 RMK
AO2 RAB21E32 P0000 T02170178 $





000
SAUS44 KMAF 202231
MTRGDP
SPECI KGDP 202226Z AUTO 06016KT 10SM -RA SCT018 BKN026 OVC046 23/18
RMK AO2 RAB21 P0000 T02280178 $





000
SAUS44 KMAF 202156
MTRGDP
METAR KGDP 202151Z AUTO 08016KT 10SM FEW019 SCT028 BKN055 22/17 RMK
AO2 SLPNO T02220172 $





000
SAUS44 KMAF 202154
MTR6R6
METAR K6R6 202153Z AUTO 11009KT 32/21 A2992 RMK AO1 SLP093 T03170211





000
SAUS44 KMAF 202056
MTRGDP
METAR KGDP 202051Z AUTO 08017KT 10SM FEW017 SCT043 23/17 RMK AO2
SLPNO T02280172 $





000
SAUS44 KMAF 202054
MTR6R6
METAR K6R6 202053Z AUTO 06009KT 020V100 32/21 A2992 RMK AO1 SLP092
T03220206 56021





000
SAUS44 KMAF 201956
MTRGDP
METAR KGDP 201951Z AUTO 06016KT 10SM FEW017 23/18 RMK AO2 SLPNO
T02280178 $





000
SAUS44 KMAF 201954
MTR6R6
METAR K6R6 201953Z AUTO 08011G15KT 33/21 A2993 RMK AO1 SLP094
T03330206





000
SAUS44 KMAF 201856
MTRGDP
METAR KGDP 201851Z AUTO 07014KT 10SM SCT015 23/18 RMK AO2 SLPNO
T02280178 $





000
SAUS44 KMAF 201854
MTR6R6
METAR K6R6 201853Z AUTO 07009KT 32/21 A2996 RMK AO1 SLP107 T03170211





000
SAUS44 KMAF 201821
MTRGDP
SPECI KGDP 201816Z AUTO 05014KT 10SM FEW014 BKN019 BKN034 22/18 RMK
AO2 T02170183 $





000
SAUS44 KMAF 201756
MTRGDP
METAR KGDP 201751Z AUTO 08010KT 10SM FEW014 SCT030 SCT035 23/18 RMK
AO2 SLPNO 60000 T02280178 10228 20167 $





000
SAUS44 KMAF 201754
MTR6R6
METAR K6R6 201753Z AUTO 07009KT 30/22 A2999 RMK AO1 SLP115 T03000222
10311 20256 50002





000
SAUS44 KMAF 201656
MTRGDP
METAR KGDP 201651Z AUTO 07009KT 10SM FEW008 21/18 RMK AO2 SLPNO
T02110178 $





000
SAUS44 KMAF 201654
MTR6R6
METAR K6R6 201653Z AUTO 09006KT 29/22 A2999 RMK AO1 SLP116 T02940217





000
SAUS44 KMAF 201641
MTRGDP
SPECI KGDP 201636Z AUTO 07009KT 10SM SCT002 21/18 RMK AO2 T02060183
$





000
SAUS44 KMAF 201630
MTRGDP
SPECI KGDP 201625Z AUTO 07009KT 10SM BKN002 19/18 RMK AO2 T01890178
$





000
SAUS44 KMAF 201623
MTRGDP
SPECI KGDP 201618Z AUTO 07011KT 2 1/2SM BR BKN002 18/18 RMK AO2
T01830178 $





000
SAUS44 KMAF 201608
MTRGDP
SPECI KGDP 201603Z AUTO 08010KT 3SM BR OVC002 18/18 RMK AO2
T01830178 $





000
SAUS44 KMAF 201556
MTRGDP
METAR KGDP 201551Z AUTO 07009KT 1 1/2SM BR OVC002 18/18 RMK AO2
SLPNO T01830178 $





000
SAUS44 KMAF 201555
MTR6R6
METAR K6R6 201553Z AUTO 11006KT 28/22 A2999 RMK AO1 SLP118 T02780217





000
SAUS44 KMAF 201546
MTRGDP
SPECI KGDP 201541Z AUTO 07010KT 6SM BR OVC002 18/18 RMK AO2
T01830178 $





000
SAUS44 KMAF 201539
MTRGDP
SPECI KGDP 201534Z AUTO 07008KT 2SM BR OVC002 18/18 RMK AO2 VIS
1/2V5 T01830183 $





000
SAUS44 KMAF 201533
MTRGDP
SPECI KGDP 201528Z AUTO 07007KT 1/2SM FG VV002 18/18 RMK AO2
T01830178 $





000
SAUS44 KMAF 201525
MTRGDP
SPECI KGDP 201520Z AUTO 07009KT 1 1/4SM BR OVC002 18/18 RMK AO2
T01780178 $





000
SAUS44 KMAF 201521
MTRGDP
SPECI KGDP 201516Z AUTO 08009KT 3SM BR OVC002 18/18 RMK AO2
T01780178 $





000
SAUS44 KMAF 201518
MTRGDP
SPECI KGDP 201513Z AUTO 07009KT 1SM BR VV002 18/18 RMK AO2 VIS 1/4V5
T01780178 $





000
SAUS44 KMAF 201456
MTRGDP
METAR KGDP 201451Z AUTO 05009KT 1/4SM FG VV002 18/18 RMK AO2 RAE24
SLPNO P0000 60000 T01830183 $





000
SAUS44 KMAF 201454
MTR6R6
METAR K6R6 201453Z AUTO 11007KT 27/22 A2998 RMK AO1 SLP113 T02670222
51016





000
SAUS44 KMAF 201356
MTRGDP
METAR KGDP 201351Z AUTO 05015KT M1/4SM -RA FG VV002 17/17 RMK AO2
RAB15 SLPNO P0000 T01720172 $





000
SAUS44 KMAF 201354
MTR6R6
METAR K6R6 201353Z AUTO 11006KT 26/22 A2997 RMK AO1 SLP109 T02610222





000
SAUS44 KMAF 201310
MTRGDP
SPECI KGDP 201305Z AUTO 05016KT M1/4SM FG VV002 17/17 RMK AO2
T01720167 $





000
SAUS44 KMAF 201302
MTRGDP
SPECI KGDP 201257Z AUTO 06014KT 1/2SM FG VV002 17/17 RMK AO2
T01720167 $





000
SAUS44 KMAF 201256
MTRGDP
METAR KGDP 201251Z AUTO 05015KT 2SM BR BKN003 BKN035 17/17 RMK AO2
SLPNO T01670167 $





000
SAUS44 KMAF 201254
MTR6R6
METAR K6R6 201253Z AUTO 14007KT 26/22 A2995 RMK AO1 SLP102 T02560222





000
SAUS44 KMAF 201254
MTRGDP
SPECI KGDP 201249Z AUTO 05015KT 5SM BR SCT003 BKN034 17/17 RMK AO2 $





000
SAUS44 KMAF 201156
MTRGDP
METAR KGDP 201151Z AUTO 24004KT 10SM CLR 17/16 RMK AO2 SLPNO
T01670161 10183 20167 $





000
SAUS44 KMAF 201154
MTR6R6
METAR K6R6 201153Z AUTO 12007KT 26/22 A2993 RMK AO1 SLP095 T02560222
10278 20256 51005





000
SAUS44 KMAF 201136
MTRGDP
SPECI KGDP 201131Z AUTO 36007KT 9SM SCT001 17/16 RMK AO2 T01670161 $





000
SAUS44 KMAF 201132
MTRGDP
SPECI KGDP 201127Z AUTO 36005KT 1 1/2SM BR BKN001 17/16 RMK AO2
T01670161 $





000
SAUS44 KMAF 201056
MTRGDP
METAR KGDP 201051Z AUTO 24012KT M1/4SM FG VV001 17/17 RMK AO2 SLPNO
T01720172 $





000
SAUS44 KMAF 201054
MTR6R6
METAR K6R6 201053Z AUTO 12009KT 26/22 A2993 RMK AO1 SLP093 T02560217





000
SAUS44 KMAF 201032
MTRGDP
SPECI KGDP 201027Z AUTO 24012KT 1/4SM FG VV001 17/17 RMK AO2
T01720167 $





000
SAUS44 KMAF 201030
MTRGDP
SPECI KGDP 201025Z AUTO 24013KT 1/2SM FG VV002 17/17 RMK AO2
T01720167 $





000
SAUS44 KMAF 201028
MTRGDP
SPECI KGDP 201023Z AUTO 23013KT 1 3/4SM BR FEW002 17/17 RMK AO2
T01720167 $





000
SAUS44 KMAF 200956
MTRGDP
METAR KGDP 200951Z AUTO 28009KT 10SM CLR 18/16 RMK AO2 SLPNO
T01830161 $





000
SAUS44 KMAF 200954
MTR6R6
METAR K6R6 200953Z AUTO 12007KT 26/22 A2993 RMK AO1 SLP093 T02610217





000
SAUS44 KMAF 200856
MTRGDP
METAR KGDP 200851Z AUTO 04007KT 8SM CLR 17/17 RMK AO2 SLPNO
T01720172 $





000
SAUS44 KMAF 200854
MTR6R6
METAR K6R6 200853Z AUTO 13011KT 27/22 A2992 RMK AO1 SLP088 T02670217
58002





000
SAUS44 KMAF 200849
MTRGDP
SPECI KGDP 200844Z AUTO 05005KT 2SM BR CLR 17/17 RMK AO2 T01720172 $





000
SAUS44 KMAF 200805
MTRGDP
SPECI KGDP 200801Z AUTO 05009KT 5SM BR SCT002 17/17 RMK AO2
T01720172 $





000
SAUS44 KMAF 200756
MTRGDP
METAR KGDP 200751Z AUTO 05006KT 6SM BR CLR 17/17 RMK AO2 SLPNO
T01720172 $





000
SAUS44 KMAF 200754
MTR6R6
METAR K6R6 200753Z AUTO 11011KT 27/22 A2993 RMK AO1 SLP095 T02670217





000
SAUS44 KMAF 200749
MTRGDP
SPECI KGDP 200744Z AUTO 05007KT 7SM CLR 17/17 RMK AO2 T01720172 $





000
SAUS44 KMAF 200739
MTRGDP
SPECI KGDP 200734Z AUTO 06008KT 2 1/2SM BR FEW002 17/17 RMK AO2 VIS
3/4V5 T01720172 $





000
SAUS44 KMAF 200731
MTRGDP
SPECI KGDP 200726Z AUTO 05010KT 3SM BR SCT002 17/17 RMK AO2
T01720172 $





000
SAUS44 KMAF 200728
MTRGDP
SPECI KGDP 200723Z AUTO 05010KT 1 1/4SM BR SCT002 17/17 RMK AO2 VIS
1/4V4 T01720172 $





000
SAUS44 KMAF 200656
MTRGDP
METAR KGDP 200651Z AUTO 05011KT 1/4SM FG VV002 17/17 RMK AO2 SLPNO
T01720172 402560167 $





000
SAUS44 KMAF 200654
MTR6R6
METAR K6R6 200653Z AUTO 09010KT 27/21 A2992 RMK AO1 SLP092 T02720211





000
SAUS44 KMAF 200652
MTRGDP
SPECI KGDP 200647Z AUTO 05011KT 1/2SM FG VV002 17/17 RMK AO2 $





000
SAUS44 KMAF 200641
MTRGDP
SPECI KGDP 200636Z AUTO 05010KT 1SM BR VV003 18/17 RMK AO2 T01780172
$





000
SAUS44 KMAF 200636
MTRGDP
SPECI KGDP 200631Z AUTO 06010KT 1/4SM FG VV003 18/18 RMK AO2
T01780178 $





000
SAUS44 KMAF 200556
MTRGDP
METAR KGDP 200551Z AUTO 07012KT 1/4SM FG BKN001 OVC026 18/18 RMK AO2
SLPNO 60000 T01780178 10239 20178 $





000
SAUS44 KMAF 200555
MTR6R6
METAR K6R6 200553Z AUTO 11005KT 28/21 A2992 RMK AO1 SLP093 T02780211
10322 20278 403500239 50003





000
SAUS44 KMAF 200511
MTRGDP
SPECI KGDP 200506Z AUTO 06012KT 1/4SM FG VV001 18/18 RMK AO2
T01780178 $





000
SAUS44 KMAF 200456
MTRGDP
METAR KGDP 200451Z AUTO 07015KT 1/4SM FG VV002 18/18 RMK AO2 SLPNO
T01830178 $





000
SAUS44 KMAF 200454
MTR6R6
METAR K6R6 200453Z AUTO 12007KT 28/21 A2994 RMK AO1 SLP099 T02830211





000
SAUS44 KMAF 200446
MTRGDP
SPECI KGDP 200441Z AUTO 07018KT 1/4SM FG VV002 18/18 RMK AO2
T01830178 $





000
SAUS44 KMAF 200437
MTRGDP
SPECI KGDP 200432Z AUTO 08017KT 1/4SM FG VV001 18/18 RMK AO2
T01830178 $





000
SAUS44 KMAF 200413
MTRGDP
SPECI KGDP 200408Z AUTO 10017KT 1/4SM FG VV002 18/18 RMK AO2
T01830183 $





000
SAUS44 KMAF 200405
MTRGDP
SPECI KGDP 200400Z AUTO 08020KT 1 1/2SM BR OVC002 18/18 RMK AO2
T01830183 $





000
SAUS44 KMAF 200359
MTRGDP
SPECI KGDP 200354Z AUTO 08020KT 3SM BR BKN002 18/18 RMK AO2
T01830178 $





000
SAUS44 KMAF 200356
MTRGDP
METAR KGDP 200351Z AUTO 08018KT 1 1/4SM BR BKN002 18/18 RMK AO2
SLPNO T01830178 $





000
SAUS44 KMAF 200354
MTR6R6
METAR K6R6 200353Z AUTO 12009KT 29/21 A2993 RMK AO1 SLP097 T02890206





000
SAUS44 KMAF 200349
MTRGDP
SPECI KGDP 200344Z AUTO 08018KT 1/4SM FG VV002 18/18 RMK AO2
T01830183 $





000
SAUS44 KMAF 200338
MTRGDP
SPECI KGDP 200333Z AUTO 05016KT 1/2SM FG VV002 18/18 RMK AO2
T01830183 $





000
SAUS44 KMAF 200338
MTRGDP
SPECI KGDP 200333Z AUTO 05016KT 1/2SM FG VV002 18/18 RMK AO2
T01830183 $





000
SAUS44 KMAF 200325
MTRGDP
SPECI KGDP 200320Z AUTO 07016KT 1/4SM FG VV002 19/19 RMK AO2
T01890189 $





000
SAUS44 KMAF 200318
MTRGDP
SPECI KGDP 200313Z AUTO 07016KT 1/2SM FG VV001 19/19 RMK AO2
T01890189 $





000
SAUS44 KMAF 200256
MTRGDP
METAR KGDP 200251Z AUTO 06016KT 1/4SM FG VV001 19/19 RMK AO2 RAE16
SLPNO P0000 60000 T01890189 $





000
SAUS44 KMAF 200254
MTR6R6
METAR K6R6 200253Z AUTO 12011KT 30/21 A2991 RMK AO1 SLP091 T03000206
53019





000
SAUS44 KMAF 200156
MTRGDP
METAR KGDP 200151Z AUTO 06015KT 1/4SM -RA FG VV002 19/19 RMK AO2
WSHFT 0056 RAB46 SLPNO P0000 T01890189 $





000
SAUS44 KMAF 200154
MTR6R6
METAR K6R6 200153Z AUTO 12008KT 30/19 A2989 RMK AO1 SLP083 T03000194





000
SAUS44 KMAF 200143
MTRGDP
SPECI KGDP 200138Z AUTO 07015KT 1/4SM FG VV002 19/19 RMK AO2 WSHFT
0056 T01940194 $





000
SAUS44 KMAF 200134
MTRGDP
SPECI KGDP 200129Z AUTO 07016KT 3/4SM BR VV002 20/19 RMK AO2 WSHFT
0056 T02000194 $





000
SAUS44 KMAF 200127
MTRGDP
SPECI KGDP 200122Z AUTO 06015KT 2 1/2SM BR BKN002 OVC007 20/19 RMK
AO2 WSHFT 0056 VIS 1 1/2V4 T02000194 $





000
SAUS44 KMAF 200115
MTRGDP
SPECI KGDP 200110Z AUTO 05012KT 4SM BR BKN002 20/19 RMK AO2 WSHFT
0056 T02000194 $





000
SAUS44 KMAF 200108
MTRGDP
SPECI KGDP 200103Z AUTO 05014KT 7SM SCT005 20/19 RMK AO2 T02000194 $





000
SAUS44 KMAF 200056
MTRGDP
METAR KGDP 200051Z AUTO 00000KT 10SM FEW049 22/16 A2994 RMK AO2
PRESFR SLP067 T02220161





000
SAUS44 KMAF 200054
MTR6R6
METAR K6R6 200053Z AUTO 12014KT 31/19 A2987 RMK AO1 SLP076 T03110194





000
SAUS44 KMAF 192356
MTRGDP
METAR KGDP 192351Z AUTO 24011KT 10SM CLR 23/16 A3009 RMK AO2 PRESFR
SLP115 60000 T02330161 10256 20206 58007





000
SAUS44 KMAF 192354
MTR6R6
METAR K6R6 192353Z AUTO 10012KT 33/19 A2985 RMK AO1 SLP069 T03280194
10350 20300 53001





000
SAUS44 KMAF 192255
MTRGDP
METAR KGDP 192251Z AUTO 24017G23KT 10SM FEW030 24/17 A3012 RMK AO2
PK WND 26029/2209 SLP125 T02440167





000
SAUS44 KMAF 192254
MTR6R6
METAR K6R6 192253Z AUTO 10013G18KT 34/19 A2984 RMK AO1 SLP065
T03390194





000
SAUS44 KMAF 192155
MTRGDP
METAR KGDP 192151Z AUTO 24019G28KT 10SM FEW031 SCT045 24/17 A3009
RMK AO2 PK WND 24028/2145 SLP115 T02390167





000
SAUS44 KMAF 192154
MTR6R6
METAR K6R6 192153Z AUTO 09012KT 34/19 A2984 RMK AO1 SLP064 T03390194





000
SAUS44 KMAF 192056
MTRGDP
METAR KGDP 192051Z AUTO 25018G25KT 210V280 10SM FEW022 FEW039 24/18
A3011 RMK AO2 PK WND 25028/2023 SLP121 60000 T02440178 55027





000
SAUS44 KMAF 192054
MTR6R6
METAR K6R6 192053Z AUTO VRB04KT 34/19 A2985 RMK AO1 SLP067 T03440194
58023





000
SAUS44 KMAF 191957 COR
MTRGDP
METAR KGDP 191951Z AUTO 25017G24KT 10SM FEW015 SCT020 BKN090 24/19
A3005 RMK AO2 RAB08E26 SLP101 P0000 T02390189





000
SAUS44 KMAF 191956 COR
MTRGDP
METAR KGDP 191951Z AUTO 25017G24KT 10SM FEW015 SCT020 BKN090 24/19
A3005 RMK AO2 RAB08E26 SLP101 P0000 T02390189





000
SAUS44 KMAF 191955
MTRGDP
METAR KGDP 191951Z AUTO 25017G24KT 10SM FEW015 SCT020 BKN090 24/19
A3005 RMK AO2 RAB08E26 SLP101 P0000 T02390189





000
SAUS44 KMAF 191954
MTR6R6
METAR K6R6 191953Z AUTO 08004KT 32/20 A2987 RMK AO1 SLP075 T03220200





000
SAUS44 KMAF 191935 COR
MTRGDP
SPECI KGDP 191923Z AUTO 26014KT 10SM -RA SCT018 BKN043 OVC095 22/20
A3006 RMK AO2 RAB08 PRESFR P0000 T02220200





000
SAUS44 KMAF 191929 COR
MTRGDP
SPECI KGDP 191923Z AUTO 26014KT 10SM -RA SCT018 BKN043 OVC095 22/20
A3006 RMK AO2 RAB08 PRESFR P0000 T02220200





000
SAUS44 KMAF 191928 COR
MTRGDP
SPECI KGDP 191923Z AUTO 26014KT 10SM -RA SCT018 BKN043 OVC095 22/20
A3006 RMK AO2 RAB08 PRESFR P0000 T02220200





000
SAUS44 KMAF 191927
MTRGDP
SPECI KGDP 191923Z AUTO 26014KT 10SM -RA SCT018 BKN043 OVC095 22/20
A3006 RMK AO2 RAB08 PRESFR P0000 T02220200





000
SAUS44 KMAF 191914 COR
MTRGDP
SPECI KGDP 191908Z AUTO 24020G24KT 7SM -RA SCT016 BKN023 BKN030
22/18 A3013 RMK AO2 RAB08 P0000 T02170178





000
SAUS44 KMAF 191913 COR
MTRGDP
SPECI KGDP 191908Z AUTO 24020G24KT 7SM -RA SCT016 BKN023 BKN030
22/18 A3013 RMK AO2 RAB08 P0000 T02170178





000
SAUS44 KMAF 191912
MTRGDP
SPECI KGDP 191908Z AUTO 24020G24KT 7SM -RA SCT016 BKN023 BKN030
22/18 A3013 RMK AO2 RAB08 P0000 T02170178





000
SAUS44 KMAF 191855
MTRGDP
METAR KGDP 191851Z AUTO 25014G20KT 10SM BKN014 OVC020 23/18 A3016
RMK AO2 SLP138 T02280183





000
SAUS44 KMAF 191854
MTR6R6
METAR K6R6 191853Z AUTO 08005KT 31/21 A2990 RMK AO1 SLP087 T03060206





000
SAUS44 KMAF 191844
MTRGDP
SPECI KGDP 191840Z AUTO 25015G20KT 10SM BKN014 BKN020 BKN070 22/18
A3017 RMK AO2 T02220183





000
SAUS44 KMAF 191835
MTRGDP
SPECI KGDP 191831Z AUTO 24013G18KT 10SM SCT014 BKN019 BKN070 23/18
A3018 RMK AO2 T02280183





000
SAUS44 KMAF 191818
MTRGDP
SPECI KGDP 191813Z AUTO 24018KT 10SM FEW005 SCT010 23/18 A3019 RMK
AO2 T02280183





000
SAUS44 KMAF 191755
MTRGDP
METAR KGDP 191751Z AUTO 24014KT 9SM OVC005 22/19 A3021 RMK AO2 CIG
002V009 SLP158 60000 T02170189 10217 20167 51014





000
SAUS44 KMAF 191754
MTR6R6
METAR K6R6 191753Z AUTO 01006KT 30/21 A2992 RMK AO1 SLP093 T03000211
10300 20239 58003





000
SAUS44 KMAF 191710
MTRGDP
SPECI KGDP 191706Z AUTO 25017KT 9SM BKN006 BKN009 19/18 A3021 RMK
AO2 T01890183





000
SAUS44 KMAF 191655
MTRGDP
METAR KGDP 191651Z AUTO 24016KT 5SM BR OVC002 19/18 A3020 RMK AO2
RAB12E41 SLP161 P0000 T01890183





000
SAUS44 KMAF 191654
MTRGDP
SPECI KGDP 191649Z AUTO 24016KT 3SM BR OVC002 19/19 A3019 RMK AO2
RAB12E41 P0000





000
SAUS44 KMAF 191654
MTR6R6
METAR K6R6 191653Z AUTO 04006KT 30/22 A2994 RMK AO1 SLP098 T03000217





000
SAUS44 KMAF 191652
MTRGDP
SPECI KGDP 191647Z AUTO 24014KT 1SM BR VV002 19/19 A3024 RMK AO2
RAB12E41 P0000





000
SAUS44 KMAF 191647
MTRGDP
SPECI KGDP 191642Z AUTO 23014KT 1/4SM FG VV002 19/18 A3021 RMK AO2
RAB12E41 P0000 T01890183





000
SAUS44 KMAF 191556
MTRGDP
METAR KGDP 191551Z AUTO 24015KT M1/4SM FG VV001 18/18 A3019 RMK AO2
RAB1455E11 SLP158 P0000 T01830178





000
SAUS44 KMAF 191554
MTR6R6
METAR K6R6 191553Z AUTO 00000KT 28/22 A2994 RMK AO1 SLP100 T02780217





000
SAUS44 KMAF 191531
MTRGDP
SPECI KGDP 191526Z AUTO 24017KT M1/4SM FG VV001 18/18 A3024 RMK AO2
RAB1455E11 PRESRR P0000 T01830178





000
SAUS44 KMAF 191456
MTRGDP
METAR KGDP 191451Z AUTO 24007KT 1/4SM FG VV002 18/17 A3016 RMK AO2
PRESRR SLP147 60000 T01780172 53025





000
SAUS44 KMAF 191454
MTR6R6
METAR K6R6 191453Z AUTO 08003KT 26/22 A2993 RMK AO1 SLP098 T02560217
51013





000
SAUS44 KMAF 191452
MTRGDP
SPECI KGDP 191447Z AUTO 23004KT 1/2SM FG VV002 18/17 A3014 RMK AO2





000
SAUS44 KMAF 191444
MTRGDP
SPECI KGDP 191439Z AUTO 18003KT 1/4SM FG VV002 17/17 A3013 RMK AO2
T01720167





000
SAUS44 KMAF 191432
MTRGDP
SPECI KGDP 191427Z AUTO 00000KT 1 1/2SM BR OVC003 17/17 A3012 RMK
AO2 VIS 3/4V5 T01720167





000
SAUS44 KMAF 191414
MTRGDP
SPECI KGDP 191409Z AUTO 05003KT 1/2SM FG VV002 17/17 A3009 RMK AO2
PRESRR T01670167





000
SAUS44 KMAF 191356
MTRGDP
METAR KGDP 191351Z AUTO 07004KT 1/4SM FG VV003 17/17 A3004 RMK AO2
RAB26E35 SLP110 P0000 T01670167





000
SAUS44 KMAF 191354
MTR6R6
METAR K6R6 191353Z AUTO 10005KT 25/22 A2992 RMK AO1 SLP093 T02500217





000
SAUS44 KMAF 191330
MTRGDP
SPECI KGDP 191325Z AUTO 06004KT 1/4SM FG VV003 17/17 A3003 RMK AO2
T01670167





000
SAUS44 KMAF 191321
MTRGDP
SPECI KGDP 191316Z AUTO 06005KT 1/2SM FG VV003 17/17 A3004 RMK AO2
PRESFR T01670167





000
SAUS44 KMAF 191311
MTRGDP
SPECI KGDP 191306Z AUTO 07007KT 1/4SM FG VV003 17/17 A3005 RMK AO2
T01670167





000
SAUS44 KMAF 191256
MTRGDP
METAR KGDP 191251Z AUTO 07009KT 1/2SM FG VV003 17/17 A3007 RMK AO2
SLP119 T01670167





000
SAUS44 KMAF 191254
MTR6R6
METAR K6R6 191253Z AUTO 13007KT 24/22 A2991 RMK AO1 SLP091 T02440217





000
SAUS44 KMAF 191243
MTRGDP
SPECI KGDP 191238Z AUTO 08007KT 1/2SM FG VV003 17/17 A3008 RMK AO2
T01670167





000
SAUS44 KMAF 191157 COR
MTRGDP
METAR KGDP 191151Z AUTO 06006KT 1/4SM FG VV002 17/17 A3019 RMK AO2
SLP157 60089 70089 T01670167 10178 20167 50042





000
SAUS44 KMAF 191156 COR
MTRGDP
METAR KGDP 191151Z AUTO 06006KT 1/4SM FG VV002 17/17 A3019 RMK AO2
SLP157 60089 70089 T01670167 10178 20167 50042





000
SAUS44 KMAF 191156
MTRGDP
METAR KGDP 191151Z AUTO 06006KT 1/4SM FG VV002 17/17 A3019 RMK AO2
SLP157 60089 70089 T01670167 10178 20167 50042





000
SAUS44 KMAF 191154
MTR6R6
METAR K6R6 191153Z AUTO 12003KT 24/21 A2989 RMK AO1 SLP084 T02390211
10261 20239 53000 $





000
SAUS44 KMAF 191151
MTRGDP
SPECI KGDP 191146Z AUTO 08006KT 1/4SM FG BKN003 OVC007 17/17 A3019
RMK AO2





000
SAUS44 KMAF 191142
MTRGDP
SPECI KGDP 191137Z AUTO 11003KT 3/4SM BR BKN003 OVC007 18/17 A3019
RMK AO2 T01780172





000
SAUS44 KMAF 191136
MTRGDP
SPECI KGDP 191131Z AUTO 22003KT 2 1/2SM BR BKN003 OVC007 18/18 A3019
RMK AO2 T01780178





000
SAUS44 KMAF 191129
MTRGDP
SPECI KGDP 191124Z AUTO 23003KT 1SM BR OVC005 18/18 A3017 RMK AO2
VIS 1/2V4 T01780178





000
SAUS44 KMAF 191120
MTRGDP
SPECI KGDP 191115Z AUTO 24004KT 1/2SM FG VV003 18/18 A3014 RMK AO2
T01780178





000
SAUS44 KMAF 191056
MTRGDP
METAR KGDP 191051Z AUTO 24003KT 1/4SM FG VV002 18/17 A3011 RMK AO2
RAE32 PRESRR SLP127 P0014 T01780172





000
SAUS44 KMAF 191054
MTR6R6
METAR K6R6 191053Z AUTO 14003KT 24/21 A2988 RMK AO1 SLP078 T02390211
$





000
SAUS44 KMAF 191044
MTRGDP
SPECI KGDP 191039Z AUTO 24007KT 1/4SM FG VV002 18/17 A3007 RMK AO2
RAE32 PRESRR P0014 T01780172





000
SAUS44 KMAF 191037
MTRGDP
SPECI KGDP 191032Z AUTO 25005KT 1/4SM FG VV005 18/17 A3005 RMK AO2
RAE32 P0014 T01780172





000
SAUS44 KMAF 191029
MTRGDP
SPECI KGDP 191024Z AUTO 24005KT 1SM -RA BR FEW003 OVC006 17/17 A3004
RMK AO2 P0014 T01720172





000
SAUS44 KMAF 191016
MTRGDP
SPECI KGDP 191011Z AUTO 23009KT 1SM RA BR FEW008 OVC013 17/17 A3005
RMK AO2 P0014 T01720172





000
SAUS44 KMAF 191010
MTRGDP
SPECI KGDP 191005Z AUTO 16003KT 1/4SM +RA FG VV011 17/17 A3005 RMK
AO2 P0012 T01720172





000
SAUS44 KMAF 191000
MTRGDP
SPECI KGDP 190955Z AUTO 24007KT 3/4SM -RA BR FEW002 BKN014 OVC033
17/17 A3005 RMK AO2 P0000 T01720172





000
SAUS44 KMAF 190956
MTRGDP
METAR KGDP 190951Z AUTO VRB03KT 10SM -RA SCT006 BKN014 OVC030 17/17
A3004 RMK AO2 RAE40B49 SLP102 P0038 T01720172





000
SAUS44 KMAF 190954
MTR6R6
METAR K6R6 190953Z AUTO 08006KT 24/21 A2988 RMK AO1 SLP079 T02440211
$





000
SAUS44 KMAF 190953
MTRGDP
SPECI KGDP 190948Z AUTO 00000KT 10SM SCT004 BKN014 OVC030 17/17
A3004 RMK AO2 RAE40 P0038





000
SAUS44 KMAF 190943 COR
MTRGDP
SPECI KGDP 190938Z AUTO 13005KT 4SM -RA BR BKN004 BKN018 OVC036
17/17 A3005 RMK AO2 P0038 T01720172





000
SAUS44 KMAF 190942
MTRGDP
SPECI KGDP 190938Z AUTO 13005KT 4SM -RA BR BKN004 BKN018 OVC036
17/17 A3005 RMK AO2 P0038 T01720172





000
SAUS44 KMAF 190941
MTRGDP
SPECI KGDP 190936Z AUTO 13006KT 1 1/4SM -RA BR BKN004 BKN020 OVC036
17/17 A3005 RMK AO2 P0038 T01720172





000
SAUS44 KMAF 190934
MTRGDP
SPECI KGDP 190929Z AUTO 16006KT 1/4SM +RA FG VV004 18/17 A3006 RMK
AO2 P0036 T01780172





000
SAUS44 KMAF 190928
MTRGDP
SPECI KGDP 190923Z AUTO VRB06KT 1/2SM +RA FG FEW002 BKN009 OVC045
18/18 A3007 RMK AO2 P0020 T01780178





000
SAUS44 KMAF 190918 COR
MTRGDP
SPECI KGDP 190912Z AUTO 01003KT 1/2SM -RA FG FEW002 BKN013 OVC050
18/17 A3004 RMK AO2 P0005 T01780172





000
SAUS44 KMAF 190917 COR
MTRGDP
SPECI KGDP 190912Z AUTO 01003KT 1/2SM -RA FG FEW002 BKN013 OVC050
18/17 A3004 RMK AO2 P0005 T01780172





000
SAUS44 KMAF 190917
MTRGDP
SPECI KGDP 190912Z AUTO 01003KT 1/2SM -RA FG FEW002 BKN013 OVC050
18/17 A3004 RMK AO2 P0005 T01780172





000
SAUS44 KMAF 190909 COR
MTRGDP
SPECI KGDP 190903Z AUTO 00000KT 1/2SM RA FG FEW014 BKN028 OVC050
18/18 A3005 RMK AO2 P0004 T01780178





000
SAUS44 KMAF 190908
MTRGDP
SPECI KGDP 190903Z AUTO 00000KT 1/2SM RA FG FEW014 BKN028 OVC050
18/18 A3005 RMK AO2 P0004 T01780178





000
SAUS44 KMAF 190856
MTRGDP
METAR KGDP 190851Z AUTO 10004KT 1SM +RA BR FEW006 BKN021 OVC027
18/18 A3006 RMK AO2 RAB0757 SLP105 P0036 60037 T01780178 56002





000
SAUS44 KMAF 190854
MTR6R6
METAR K6R6 190853Z AUTO 07010KT 24/21 A2989 RMK AO1 SLP082 T02390211
58004 $





000
SAUS44 KMAF 190852
MTRGDP
SPECI KGDP 190848Z AUTO 07004KT 1SM +RA BR FEW006 OVC021 18/17 A3006
RMK AO2 RAB0757 P0033





000
SAUS44 KMAF 190845
MTRGDP
SPECI KGDP 190841Z AUTO 00000KT 1 1/4SM RA BR FEW004 OVC014 18/18
A3006 RMK AO2 RAB0757 P0028 T01780178





000
SAUS44 KMAF 190845 COR
MTRGDP
SPECI KGDP 190841Z AUTO 00000KT 1 1/4SM RA BR FEW004 OVC014 18/18
A3006 RMK AO2 RAB0757 P0028 T01780178





000
SAUS44 KMAF 190843
MTRGDP
SPECI KGDP 190839Z AUTO 00000KT 1/2SM RA FG FEW004 BKN008 OVC016
18/18 A3005 RMK AO2 RAB0757 P0027 T01780178





000
SAUS44 KMAF 190836
MTRGDP
SPECI KGDP 190832Z AUTO 00000KT 1/4SM +RA FG VV007 18/18 A3005 RMK
AO2 RAB0757 P0025 T01780178





000
SAUS44 KMAF 190826 COR
MTRGDP
SPECI KGDP 190820Z AUTO 05007KT 3/4SM +RA BR FEW006 BKN010 OVC022
18/18 A3004 RMK AO2 RAB0757 P0020 T01780178





000
SAUS44 KMAF 190825 COR
MTRGDP
SPECI KGDP 190820Z AUTO 05007KT 3/4SM +RA BR FEW006 BKN010 OVC022
18/18 A3004 RMK AO2 RAB0757 P0020 T01780178





000
SAUS44 KMAF 190824
MTRGDP
SPECI KGDP 190820Z AUTO 05007KT 3/4SM +RA BR FEW006 BKN010 OVC022
18/18 A3004 RMK AO2 RAB0757 P0020 T01780178





000
SAUS44 KMAF 190820
MTRGDP
SPECI KGDP 190816Z AUTO 01004KT 3/4SM +RA BR VV004 18/18 A3005 RMK
AO2 RAB0757 P0015 T01780178





000
SAUS44 KMAF 190755
MTRGDP
METAR KGDP 190751Z AUTO 07006KT 1/4SM FG VV002 18/18 A3006 RMK AO2
RAB16E42 SLP104 P0000 T01780178





000
SAUS44 KMAF 190754
MTR6R6
METAR K6R6 190753Z AUTO 06008KT 24/22 A2990 RMK AO1 SLP084 T02440217
$





000
SAUS44 KMAF 190657 COR
MTRGDP
METAR KGDP 190651Z AUTO 07008KT 1/4SM FG VV002 18/18 A3007 RMK AO2
RAB0559E15 SLP112 P0001 T01780178 402330150





000
SAUS44 KMAF 190656
MTRGDP
METAR KGDP 190651Z AUTO 07008KT 1/4SM FG VV002 18/18 A3007 RMK AO2
RAB0559E15 SLP112 P0001 T01780178 402330150





000
SAUS44 KMAF 190656 COR
MTRGDP
METAR KGDP 190651Z AUTO 07008KT 1/4SM FG VV002 18/18 A3007 RMK AO2
RAB0559E15 SLP112 P0001 T01780178 402330150





000
SAUS44 KMAF 190654
MTR6R6
METAR K6R6 190653Z AUTO 06011KT 24/22 A2990 RMK AO1 SLP085 T02440217
$





000
SAUS44 KMAF 190555
MTRGDP
METAR KGDP 190551Z AUTO 09010KT 1/4SM FG VV002 18/18 A3008 RMK AO2
SLP116 60000 T01780178 10194 20178 50004





000
SAUS44 KMAF 190554
MTR6R6
METAR K6R6 190553Z AUTO 04008KT 26/22 A2990 RMK AO1 SLP086 T02610222
10306 20261 403440239 $





000
SAUS44 KMAF 190515
MTRGDP
SPECI KGDP 190511Z AUTO 07012KT 1/4SM FG VV002 18/18 A3008 RMK AO2
T01780178





000
SAUS44 KMAF 190455
MTRGDP
METAR KGDP 190451Z AUTO 06014KT 1/4SM FG VV001 18/18 A3008 RMK AO2
SLP118 T01780178





000
SAUS44 KMAF 190454
MTR6R6
METAR K6R6 190453Z AUTO 05006KT 27/22 A2990 RMK AO1 SLP086 T02670222
$





000
SAUS44 KMAF 190447
MTRGDP
SPECI KGDP 190443Z AUTO 07016KT 1/4SM FG VV001 18/18 A3008 RMK AO2
T01780178





000
SAUS44 KMAF 190420
MTRGDP
SPECI KGDP 190415Z AUTO 05020KT 1/4SM FG VV002 18/18 A3007 RMK AO2
T01780178





000
SAUS44 KMAF 190409
MTRGDP
SPECI KGDP 190405Z AUTO 06020KT 1/2SM FG VV002 18/18 A3008 RMK AO2
T01780178





000
SAUS44 KMAF 190357 COR
MTRGDP
METAR KGDP 190351Z AUTO 05020KT 3SM BR OVC003 18/17 A3008 RMK AO2 PK
WND 06027/0336 RAB11E22 SLP118 P0000 T01780172





000
SAUS44 KMAF 190356 COR
MTRGDP
METAR KGDP 190351Z AUTO 05020KT 3SM BR OVC003 18/17 A3008 RMK AO2 PK
WND 06027/0336 RAB11E22 SLP118 P0000 T01780172





000
SAUS44 KMAF 190356
MTRGDP
METAR KGDP 190351Z AUTO 05020KT 3SM BR OVC003 18/17 A3008 RMK AO2 PK
WND 06027/0336 RAB11E22 SLP118 P0000 T01780172





000
SAUS44 KMAF 190354
MTR6R6
METAR K6R6 190353Z AUTO 00000KT 27/22 A2991 RMK AO1 SLP087 T02720222





000
SAUS44 KMAF 190335 COR
MTRGDP
SPECI KGDP 190329Z AUTO 05022KT 7SM BKN004 OVC065 18/17 A3007 RMK
AO2 RAB11E22 CIG 004V008 P0000 T01780172





000
SAUS44 KMAF 190334 COR
MTRGDP
SPECI KGDP 190329Z AUTO 05022KT 7SM BKN004 OVC065 18/17 A3007 RMK
AO2 RAB11E22 CIG 004V008 P0000 T01780172





000
SAUS44 KMAF 190334
MTRGDP
SPECI KGDP 190329Z AUTO 05022KT 7SM BKN004 OVC065 18/17 A3007 RMK
AO2 RAB11E22 CIG 004V008 P0000 T01780172





000
SAUS44 KMAF 190256
MTRGDP
METAR KGDP 190251Z AUTO 04021KT 8SM FEW006 BKN070 OVC110 18/17 A3006
RMK AO2 PK WND 04028/0220 SLP116 T01830172 53010





000
SAUS44 KMAF 190254
MTR6R6
METAR K6R6 190253Z AUTO 10007KT 28/22 A2989 RMK AO1 SLP083 T02830222
51023





000
SAUS44 KMAF 190250 COR
MTRGDP
SPECI KGDP 190239Z AUTO 05022KT 8SM SCT005 BKN048 OVC070 18/17 A3006
RMK AO2 PK WND 04028/0220 T01830172





000
SAUS44 KMAF 190245 COR
MTRGDP
SPECI KGDP 190239Z AUTO 05022KT 8SM SCT005 BKN048 OVC070 18/17 A3006
RMK AO2 PK WND 04028/0220 T01830172





000
SAUS44 KMAF 190244 COR
MTRGDP
SPECI KGDP 190239Z AUTO 05022KT 8SM SCT005 BKN048 OVC070 18/17 A3006
RMK AO2 PK WND 04028/0220 T01830172





000
SAUS44 KMAF 190244
MTRGDP
SPECI KGDP 190239Z AUTO 05022KT 8SM SCT005 BKN048 OVC070 18/17 A3006
RMK AO2 PK WND 04028/0220 T01830172





000
SAUS44 KMAF 190156
MTRGDP
METAR KGDP 190151Z AUTO 04023KT 10SM OVC006 18/17 A3005 RMK AO2 PK
WND 05029/0100 CIG 003V010 SLP115 T01780172





000
SAUS44 KMAF 190154
MTR6R6
METAR K6R6 190153Z AUTO 13008KT 29/22 A2988 RMK AO1 SLP079 T02940217





000
SAUS44 KMAF 190108
MTRGDP
SPECI KGDP 190103Z AUTO 05025KT 10SM OVC005 18/17 A3004 RMK AO2 PK
WND 05029/0100 CIG 003V008 T01830172





000
SAUS44 KMAF 190056
MTRGDP
METAR KGDP 190051Z AUTO 05022KT 8SM OVC003 18/17 A3004 RMK AO2 PK
WND 05027/0035 CIG 003V006 SLP108 T01830172





000
SAUS44 KMAF 190054
MTR6R6
METAR K6R6 190053Z AUTO 11010KT 30/21 A2984 RMK AO1 SLP068 T03000206





000
SAUS44 KMAF 190032 COR
MTRGDP
SPECI KGDP 190026Z AUTO 06020KT 6SM BR BKN004 BKN022 18/18 A3003 RMK
AO2 PK WND 06026/0022 CIG 003V007 T01830178





000
SAUS44 KMAF 190031 COR
MTRGDP
SPECI KGDP 190026Z AUTO 06020KT 6SM BR BKN004 BKN022 18/18 A3003 RMK
AO2 PK WND 06026/0022 CIG 003V007 T01830178





000
SAUS44 KMAF 190031
MTRGDP
SPECI KGDP 190026Z AUTO 06020KT 6SM BR BKN004 BKN022 18/18 A3003 RMK
AO2 PK WND 06026/0022 CIG 003V007 T01830178





000
SAUS44 KMAF 190017
MTRGDP
SPECI KGDP 190012Z AUTO 06020KT 5SM BR SCT006 BKN012 BKN021 19/18
A3003 RMK AO2 T01890178





    US Dept of Commerce
    National Oceanic and Atmospheric Administration
    National Weather Service
    1325 East West Highway
    Silver Spring, MD 20910
    Page Author: NWS Internet Services Team
Disclaimer
Information Quality
Credits
Glossary
Privacy Policy
Freedom of Information Act (FOIA)
About Us
Career Opportunities